sensor_id;sensor_type;location;lat;lon;timestamp;P1;durP1;ratioP1;P2;durP2;ratioP2
11338;SDS011;5724;42.684;23.252;2023-02-08T00:01:15;20.30;;;7.60;;
11338;SDS011;5724;42.684;23.252;2023-02-08T00:03:42;7.30;;;5.57;;
11338;SDS011;5724;42.684;23.252;2023-02-08T00:06:09;15.30;;;8.60;;
11338;SDS011;5724;42.684;23.252;2023-02-08T00:08:35;16.33;;;9.80;;
11338;SDS011;5724;42.684;23.252;2023-02-08T00:11:01;19.60;;;13.07;;
11338;SDS011;5724;42.684;23.252;2023-02-08T00:13:28;21.27;;;14.57;;
11338;SDS011;5724;42.684;23.252;2023-02-08T00:15:53;22.10;;;13.10;;
11338;SDS011;5724;42.684;23.252;2023-02-08T00:18:19;21.90;;;13.87;;
11338;SDS011;5724;42.684;23.252;2023-02-08T00:20:46;19.30;;;12.87;;
11338;SDS011;5724;42.684;23.252;2023-02-08T00:23:12;12.17;;;7.80;;
11338;SDS011;5724;42.684;23.252;2023-02-08T00:25:38;7.13;;;6.10;;
11338;SDS011;5724;42.684;23.252;2023-02-08T00:28:04;13.13;;;7.63;;
11338;SDS011;5724;42.684;23.252;2023-02-08T00:30:30;13.33;;;8.83;;
11338;SDS011;5724;42.684;23.252;2023-02-08T00:32:56;9.83;;;7.63;;
11338;SDS011;5724;42.684;23.252;2023-02-08T00:35:22;13.03;;;8.53;;
11338;SDS011;5724;42.684;23.252;2023-02-08T00:37:47;14.67;;;8.33;;
11338;SDS011;5724;42.684;23.252;2023-02-08T00:40:13;13.03;;;9.40;;
11338;SDS011;5724;42.684;23.252;2023-02-08T00:42:38;11.40;;;6.73;;
11338;SDS011;5724;42.684;23.252;2023-02-08T00:45:04;11.50;;;7.60;;
11338;SDS011;5724;42.684;23.252;2023-02-08T00:47:30;4.63;;;3.90;;
11338;SDS011;5724;42.684;23.252;2023-02-08T00:49:55;11.47;;;8.07;;
11338;SDS011;5724;42.684;23.252;2023-02-08T00:52:20;8.77;;;7.70;;
11338;SDS011;5724;42.684;23.252;2023-02-08T00:54:46;20.70;;;13.60;;
11338;SDS011;5724;42.684;23.252;2023-02-08T00:57:12;19.77;;;12.93;;
11338;SDS011;5724;42.684;23.252;2023-02-08T00:59:38;19.53;;;13.00;;
11338;SDS011;5724;42.684;23.252;2023-02-08T01:02:22;8.23;;;6.10;;
11338;SDS011;5724;42.684;23.252;2023-02-08T01:04:48;14.13;;;8.53;;
11338;SDS011;5724;42.684;23.252;2023-02-08T01:07:13;15.33;;;9.23;;
11338;SDS011;5724;42.684;23.252;2023-02-08T01:09:39;5.80;;;5.03;;
11338;SDS011;5724;42.684;23.252;2023-02-08T01:12:04;11.20;;;8.27;;
11338;SDS011;5724;42.684;23.252;2023-02-08T01:14:29;10.53;;;8.20;;
11338;SDS011;5724;42.684;23.252;2023-02-08T01:16:55;14.30;;;8.30;;
11338;SDS011;5724;42.684;23.252;2023-02-08T01:19:20;5.23;;;4.80;;
11338;SDS011;5724;42.684;23.252;2023-02-08T01:21:46;13.67;;;9.70;;
11338;SDS011;5724;42.684;23.252;2023-02-08T01:24:13;13.37;;;8.27;;
11338;SDS011;5724;42.684;23.252;2023-02-08T01:26:39;16.43;;;10.53;;
11338;SDS011;5724;42.684;23.252;2023-02-08T01:29:04;16.87;;;9.73;;
11338;SDS011;5724;42.684;23.252;2023-02-08T01:31:31;21.10;;;13.43;;
11338;SDS011;5724;42.684;23.252;2023-02-08T01:33:58;22.40;;;13.63;;
11338;SDS011;5724;42.684;23.252;2023-02-08T01:36:24;19.23;;;13.43;;
11338;SDS011;5724;42.684;23.252;2023-02-08T01:38:52;8.17;;;6.43;;
11338;SDS011;5724;42.684;23.252;2023-02-08T01:46:43;8.77;;;6.90;;
11338;SDS011;5724;42.684;23.252;2023-02-08T01:49:12;8.73;;;6.30;;
11338;SDS011;5724;42.684;23.252;2023-02-08T01:51:47;15.03;;;9.53;;
11338;SDS011;5724;42.684;23.252;2023-02-08T01:54:16;6.33;;;5.60;;
11338;SDS011;5724;42.684;23.252;2023-02-08T01:56:44;14.90;;;9.83;;
11338;SDS011;5724;42.684;23.252;2023-02-08T01:59:17;12.33;;;8.40;;
11338;SDS011;5724;42.684;23.252;2023-02-08T02:01:47;10.63;;;8.03;;
11338;SDS011;5724;42.684;23.252;2023-02-08T02:04:15;8.60;;;7.73;;
11338;SDS011;5724;42.684;23.252;2023-02-08T02:06:42;16.60;;;9.47;;
11338;SDS011;5724;42.684;23.252;2023-02-08T02:09:34;15.53;;;10.23;;
11338;SDS011;5724;42.684;23.252;2023-02-08T02:12:04;20.23;;;14.27;;
11338;SDS011;5724;42.684;23.252;2023-02-08T02:14:31;24.47;;;16.07;;
11338;SDS011;5724;42.684;23.252;2023-02-08T02:16:59;22.37;;;15.43;;
11338;SDS011;5724;42.684;23.252;2023-02-08T02:19:30;15.43;;;10.93;;
11338;SDS011;5724;42.684;23.252;2023-02-08T02:42:02;24.77;;;13.17;;
11338;SDS011;5724;42.684;23.252;2023-02-08T02:45:14;22.33;;;13.90;;
11338;SDS011;5724;42.684;23.252;2023-02-08T02:51:10;19.40;;;13.30;;
11338;SDS011;5724;42.684;23.252;2023-02-08T02:53:19;18.50;;;11.57;;
11338;SDS011;5724;42.684;23.252;2023-02-08T02:55:53;17.33;;;12.40;;
11338;SDS011;5724;42.684;23.252;2023-02-08T02:58:22;24.87;;;14.27;;
11338;SDS011;5724;42.684;23.252;2023-02-08T03:00:53;14.20;;;9.23;;
11338;SDS011;5724;42.684;23.252;2023-02-08T03:03:27;18.70;;;12.57;;
11338;SDS011;5724;42.684;23.252;2023-02-08T03:05:58;33.83;;;19.17;;
11338;SDS011;5724;42.684;23.252;2023-02-08T03:19:30;13.27;;;9.70;;
11338;SDS011;5724;42.684;23.252;2023-02-08T03:22:02;21.67;;;13.13;;
11338;SDS011;5724;42.684;23.252;2023-02-08T03:24:39;18.80;;;12.80;;
11338;SDS011;5724;42.684;23.252;2023-02-08T03:27:19;25.83;;;14.23;;
11338;SDS011;5724;42.684;23.252;2023-02-08T03:29:59;22.00;;;13.97;;
11338;SDS011;5724;42.684;23.252;2023-02-08T03:33:02;25.03;;;15.47;;
11338;SDS011;5724;42.684;23.252;2023-02-08T03:35:49;20.00;;;13.53;;
11338;SDS011;5724;42.684;23.252;2023-02-08T03:38:28;30.70;;;16.50;;
11338;SDS011;5724;42.684;23.252;2023-02-08T03:40:58;25.03;;;14.33;;
11338;SDS011;5724;42.684;23.252;2023-02-08T03:48:33;24.37;;;14.43;;
11338;SDS011;5724;42.684;23.252;2023-02-08T03:51:02;34.93;;;19.73;;
11338;SDS011;5724;42.684;23.252;2023-02-08T03:53:30;37.83;;;21.50;;
11338;SDS011;5724;42.684;23.252;2023-02-08T03:56:02;38.17;;;21.23;;
11338;SDS011;5724;42.684;23.252;2023-02-08T03:58:37;39.77;;;21.27;;
11338;SDS011;5724;42.684;23.252;2023-02-08T04:01:28;22.57;;;13.97;;
11338;SDS011;5724;42.684;23.252;2023-02-08T04:03:57;22.90;;;15.07;;
11338;SDS011;5724;42.684;23.252;2023-02-08T04:06:24;20.40;;;13.87;;
11338;SDS011;5724;42.684;23.252;2023-02-08T04:08:50;19.83;;;13.03;;
11338;SDS011;5724;42.684;23.252;2023-02-08T04:11:16;27.37;;;15.03;;
11338;SDS011;5724;42.684;23.252;2023-02-08T04:13:42;25.50;;;15.13;;
11338;SDS011;5724;42.684;23.252;2023-02-08T04:16:08;26.10;;;15.10;;
11338;SDS011;5724;42.684;23.252;2023-02-08T04:18:36;31.23;;;17.07;;
11338;SDS011;5724;42.684;23.252;2023-02-08T04:21:02;30.87;;;18.87;;
11338;SDS011;5724;42.684;23.252;2023-02-08T04:23:28;27.83;;;17.43;;
11338;SDS011;5724;42.684;23.252;2023-02-08T04:25:53;38.80;;;21.43;;
11338;SDS011;5724;42.684;23.252;2023-02-08T04:28:18;38.43;;;22.77;;
11338;SDS011;5724;42.684;23.252;2023-02-08T04:30:44;38.40;;;23.47;;
11338;SDS011;5724;42.684;23.252;2023-02-08T04:33:10;37.27;;;22.47;;
11338;SDS011;5724;42.684;23.252;2023-02-08T04:35:37;39.97;;;23.33;;
11338;SDS011;5724;42.684;23.252;2023-02-08T04:38:03;42.37;;;22.43;;
11338;SDS011;5724;42.684;23.252;2023-02-08T04:40:28;16.33;;;11.63;;
11338;SDS011;5724;42.684;23.252;2023-02-08T04:42:55;10.27;;;7.73;;
11338;SDS011;5724;42.684;23.252;2023-02-08T04:45:20;22.00;;;13.47;;
11338;SDS011;5724;42.684;23.252;2023-02-08T04:47:46;20.57;;;13.23;;
11338;SDS011;5724;42.684;23.252;2023-02-08T04:50:11;20.70;;;13.50;;
11338;SDS011;5724;42.684;23.252;2023-02-08T04:52:37;31.20;;;16.20;;
11338;SDS011;5724;42.684;23.252;2023-02-08T04:55:02;18.30;;;12.13;;
11338;SDS011;5724;42.684;23.252;2023-02-08T04:57:28;32.87;;;18.37;;
11338;SDS011;5724;42.684;23.252;2023-02-08T04:59:53;25.93;;;16.13;;
11338;SDS011;5724;42.684;23.252;2023-02-08T05:02:19;38.27;;;18.97;;
11338;SDS011;5724;42.684;23.252;2023-02-08T05:04:44;21.50;;;15.57;;
11338;SDS011;5724;42.684;23.252;2023-02-08T05:07:10;45.57;;;25.00;;
11338;SDS011;5724;42.684;23.252;2023-02-08T05:09:35;49.10;;;26.90;;
11338;SDS011;5724;42.684;23.252;2023-02-08T05:12:01;54.90;;;27.87;;
11338;SDS011;5724;42.684;23.252;2023-02-08T05:14:26;51.93;;;29.90;;
11338;SDS011;5724;42.684;23.252;2023-02-08T05:16:52;57.40;;;30.10;;
11338;SDS011;5724;42.684;23.252;2023-02-08T05:19:17;54.53;;;31.43;;
11338;SDS011;5724;42.684;23.252;2023-02-08T05:21:42;26.10;;;14.80;;
11338;SDS011;5724;42.684;23.252;2023-02-08T05:24:08;13.57;;;9.30;;
11338;SDS011;5724;42.684;23.252;2023-02-08T05:26:37;26.43;;;11.93;;
11338;SDS011;5724;42.684;23.252;2023-02-08T05:29:03;43.00;;;19.53;;
11338;SDS011;5724;42.684;23.252;2023-02-08T05:31:29;40.00;;;19.17;;
11338;SDS011;5724;42.684;23.252;2023-02-08T05:33:54;29.20;;;16.73;;
11338;SDS011;5724;42.684;23.252;2023-02-08T05:36:20;34.30;;;18.20;;
11338;SDS011;5724;42.684;23.252;2023-02-08T05:38:47;39.50;;;20.30;;
11338;SDS011;5724;42.684;23.252;2023-02-08T05:41:13;28.17;;;15.90;;
11338;SDS011;5724;42.684;23.252;2023-02-08T05:43:38;22.70;;;14.53;;
11338;SDS011;5724;42.684;23.252;2023-02-08T05:46:04;30.80;;;16.53;;
11338;SDS011;5724;42.684;23.252;2023-02-08T05:48:30;39.67;;;19.17;;
11338;SDS011;5724;42.684;23.252;2023-02-08T05:50:56;20.63;;;13.97;;
11338;SDS011;5724;42.684;23.252;2023-02-08T05:53:21;30.10;;;15.53;;
11338;SDS011;5724;42.684;23.252;2023-02-08T05:55:47;38.90;;;21.23;;
11338;SDS011;5724;42.684;23.252;2023-02-08T05:58:13;42.77;;;23.07;;
11338;SDS011;5724;42.684;23.252;2023-02-08T06:00:40;42.80;;;22.93;;
11338;SDS011;5724;42.684;23.252;2023-02-08T06:03:06;32.47;;;16.93;;
11338;SDS011;5724;42.684;23.252;2023-02-08T06:05:31;21.37;;;12.60;;
11338;SDS011;5724;42.684;23.252;2023-02-08T06:07:58;51.17;;;26.80;;
11338;SDS011;5724;42.684;23.252;2023-02-08T06:10:24;41.93;;;24.47;;
11338;SDS011;5724;42.684;23.252;2023-02-08T06:12:49;45.33;;;25.17;;
11338;SDS011;5724;42.684;23.252;2023-02-08T06:15:14;19.57;;;11.23;;
11338;SDS011;5724;42.684;23.252;2023-02-08T06:17:40;19.30;;;11.73;;
11338;SDS011;5724;42.684;23.252;2023-02-08T06:20:05;21.43;;;13.77;;
11338;SDS011;5724;42.684;23.252;2023-02-08T06:22:33;28.90;;;12.23;;
11338;SDS011;5724;42.684;23.252;2023-02-08T06:24:58;12.17;;;8.47;;
11338;SDS011;5724;42.684;23.252;2023-02-08T06:27:24;20.33;;;11.80;;
11338;SDS011;5724;42.684;23.252;2023-02-08T06:29:49;27.37;;;14.47;;
11338;SDS011;5724;42.684;23.252;2023-02-08T06:32:15;17.70;;;12.33;;
11338;SDS011;5724;42.684;23.252;2023-02-08T06:34:40;27.93;;;12.30;;
11338;SDS011;5724;42.684;23.252;2023-02-08T06:37:06;18.67;;;12.93;;
11338;SDS011;5724;42.684;23.252;2023-02-08T06:39:31;38.67;;;22.37;;
11338;SDS011;5724;42.684;23.252;2023-02-08T06:41:57;34.53;;;21.10;;
11338;SDS011;5724;42.684;23.252;2023-02-08T06:44:22;34.13;;;21.40;;
11338;SDS011;5724;42.684;23.252;2023-02-08T06:46:48;25.27;;;16.10;;
11338;SDS011;5724;42.684;23.252;2023-02-08T06:49:13;30.07;;;17.67;;
11338;SDS011;5724;42.684;23.252;2023-02-08T06:51:39;9.50;;;7.17;;
11338;SDS011;5724;42.684;23.252;2023-02-08T06:54:05;12.43;;;9.93;;
11338;SDS011;5724;42.684;23.252;2023-02-08T06:56:30;13.57;;;9.17;;
11338;SDS011;5724;42.684;23.252;2023-02-08T06:58:56;19.13;;;10.50;;
11338;SDS011;5724;42.684;23.252;2023-02-08T07:01:22;14.10;;;9.23;;
11338;SDS011;5724;42.684;23.252;2023-02-08T07:03:47;14.83;;;8.97;;
11338;SDS011;5724;42.684;23.252;2023-02-08T07:06:13;19.77;;;10.53;;
11338;SDS011;5724;42.684;23.252;2023-02-08T07:08:40;7.50;;;6.03;;
11338;SDS011;5724;42.684;23.252;2023-02-08T07:11:10;25.60;;;14.67;;
11338;SDS011;5724;42.684;23.252;2023-02-08T07:13:41;24.57;;;15.53;;
11338;SDS011;5724;42.684;23.252;2023-02-08T07:16:07;37.73;;;20.30;;
11338;SDS011;5724;42.684;23.252;2023-02-08T07:18:34;36.30;;;20.27;;
11338;SDS011;5724;42.684;23.252;2023-02-08T07:21:00;31.67;;;19.13;;
11338;SDS011;5724;42.684;23.252;2023-02-08T07:23:26;29.87;;;18.50;;
11338;SDS011;5724;42.684;23.252;2023-02-08T07:26:01;28.57;;;18.37;;
11338;SDS011;5724;42.684;23.252;2023-02-08T07:28:29;30.37;;;15.27;;
11338;SDS011;5724;42.684;23.252;2023-02-08T07:30:55;15.60;;;10.70;;
11338;SDS011;5724;42.684;23.252;2023-02-08T07:33:21;16.70;;;11.63;;
11338;SDS011;5724;42.684;23.252;2023-02-08T07:35:48;13.27;;;8.57;;
11338;SDS011;5724;42.684;23.252;2023-02-08T07:38:13;15.10;;;10.53;;
11338;SDS011;5724;42.684;23.252;2023-02-08T07:40:38;22.67;;;12.17;;
11338;SDS011;5724;42.684;23.252;2023-02-08T07:43:04;13.17;;;6.77;;
11338;SDS011;5724;42.684;23.252;2023-02-08T07:45:30;10.67;;;8.40;;
11338;SDS011;5724;42.684;23.252;2023-02-08T07:47:55;7.97;;;4.47;;
11338;SDS011;5724;42.684;23.252;2023-02-08T07:50:21;11.53;;;9.93;;
11338;SDS011;5724;42.684;23.252;2023-02-08T07:52:46;27.30;;;16.47;;
11338;SDS011;5724;42.684;23.252;2023-02-08T07:55:12;28.23;;;16.80;;
11338;SDS011;5724;42.684;23.252;2023-02-08T07:57:44;28.67;;;17.37;;
11338;SDS011;5724;42.684;23.252;2023-02-08T08:00:12;29.97;;;18.27;;
11338;SDS011;5724;42.684;23.252;2023-02-08T08:02:38;23.33;;;6.20;;
11338;SDS011;5724;42.684;23.252;2023-02-08T08:05:04;11.10;;;8.37;;
11338;SDS011;5724;42.684;23.252;2023-02-08T08:07:30;11.43;;;8.27;;
11338;SDS011;5724;42.684;23.252;2023-02-08T08:09:56;5.60;;;4.53;;
11338;SDS011;5724;42.684;23.252;2023-02-08T08:12:21;12.50;;;8.40;;
11338;SDS011;5724;42.684;23.252;2023-02-08T08:14:48;11.20;;;6.93;;
11338;SDS011;5724;42.684;23.252;2023-02-08T08:17:14;9.37;;;5.40;;
11338;SDS011;5724;42.684;23.252;2023-02-08T08:19:40;14.17;;;9.40;;
11338;SDS011;5724;42.684;23.252;2023-02-08T08:22:06;10.13;;;7.33;;
11338;SDS011;5724;42.684;23.252;2023-02-08T08:24:31;23.30;;;14.33;;
11338;SDS011;5724;42.684;23.252;2023-02-08T08:27:00;23.87;;;15.60;;
11338;SDS011;5724;42.684;23.252;2023-02-08T08:29:26;22.53;;;15.23;;
11338;SDS011;5724;42.684;23.252;2023-02-08T08:31:52;8.87;;;5.87;;
11338;SDS011;5724;42.684;23.252;2023-02-08T08:34:17;7.97;;;3.90;;
11338;SDS011;5724;42.684;23.252;2023-02-08T08:36:43;7.77;;;6.83;;
11338;SDS011;5724;42.684;23.252;2023-02-08T08:39:08;4.80;;;3.53;;
11338;SDS011;5724;42.684;23.252;2023-02-08T08:41:34;10.03;;;5.77;;
11338;SDS011;5724;42.684;23.252;2023-02-08T08:44:01;10.73;;;7.93;;
11338;SDS011;5724;42.684;23.252;2023-02-08T08:46:27;10.73;;;9.10;;
11338;SDS011;5724;42.684;23.252;2023-02-08T08:48:52;12.20;;;5.90;;
11338;SDS011;5724;42.684;23.252;2023-02-08T08:51:18;4.97;;;4.50;;
11338;SDS011;5724;42.684;23.252;2023-02-08T08:53:43;20.77;;;13.43;;
11338;SDS011;5724;42.684;23.252;2023-02-08T08:56:09;23.40;;;14.90;;
11338;SDS011;5724;42.684;23.252;2023-02-08T08:58:34;28.50;;;16.40;;
11338;SDS011;5724;42.684;23.252;2023-02-08T09:01:00;26.07;;;15.53;;
11338;SDS011;5724;42.684;23.252;2023-02-08T09:03:26;7.70;;;6.03;;
11338;SDS011;5724;42.684;23.252;2023-02-08T09:05:52;6.90;;;4.73;;
11338;SDS011;5724;42.684;23.252;2023-02-08T09:08:18;8.23;;;6.17;;
11338;SDS011;5724;42.684;23.252;2023-02-08T09:10:43;6.83;;;5.83;;
11338;SDS011;5724;42.684;23.252;2023-02-08T09:13:09;16.00;;;12.10;;
11338;SDS011;5724;42.684;23.252;2023-02-08T09:15:38;7.77;;;6.57;;
11338;SDS011;5724;42.684;23.252;2023-02-08T09:18:04;26.17;;;10.30;;
11338;SDS011;5724;42.684;23.252;2023-02-08T09:20:30;9.53;;;5.13;;
11338;SDS011;5724;42.684;23.252;2023-02-08T09:22:55;19.97;;;13.00;;
11338;SDS011;5724;42.684;23.252;2023-02-08T09:25:21;42.63;;;21.97;;
11338;SDS011;5724;42.684;23.252;2023-02-08T09:27:46;26.83;;;16.77;;
11338;SDS011;5724;42.684;23.252;2023-02-08T09:30:12;24.47;;;15.60;;
11338;SDS011;5724;42.684;23.252;2023-02-08T09:32:38;24.80;;;14.80;;
11338;SDS011;5724;42.684;23.252;2023-02-08T09:35:05;39.53;;;7.13;;
11338;SDS011;5724;42.684;23.252;2023-02-08T09:37:31;7.87;;;5.17;;
11338;SDS011;5724;42.684;23.252;2023-02-08T09:39:57;7.53;;;6.80;;
11338;SDS011;5724;42.684;23.252;2023-02-08T09:50:47;15.17;;;11.27;;
11338;SDS011;5724;42.684;23.252;2023-02-08T09:55:54;15.07;;;11.63;;
11338;SDS011;5724;42.684;23.252;2023-02-08T09:59:05;16.07;;;11.03;;
11338;SDS011;5724;42.684;23.252;2023-02-08T10:01:20;10.67;;;7.00;;
11338;SDS011;5724;42.684;23.252;2023-02-08T10:03:48;8.57;;;6.83;;
11338;SDS011;5724;42.684;23.252;2023-02-08T10:06:17;4.33;;;3.90;;
11338;SDS011;5724;42.684;23.252;2023-02-08T10:08:44;2.77;;;2.20;;
11338;SDS011;5724;42.684;23.252;2023-02-08T10:19:07;25.80;;;15.50;;
11338;SDS011;5724;42.684;23.252;2023-02-08T10:21:59;15.17;;;10.87;;
11338;SDS011;5724;42.684;23.252;2023-02-08T10:27:17;5.90;;;4.70;;
11338;SDS011;5724;42.684;23.252;2023-02-08T10:35:16;4.13;;;2.83;;
11338;SDS011;5724;42.684;23.252;2023-02-08T10:37:53;7.70;;;3.57;;
11338;SDS011;5724;42.684;23.252;2023-02-08T10:42:54;10.47;;;9.37;;
11338;SDS011;5724;42.684;23.252;2023-02-08T10:46:03;9.90;;;8.57;;
11338;SDS011;5724;42.684;23.252;2023-02-08T10:48:30;12.67;;;9.57;;
11338;SDS011;5724;42.684;23.252;2023-02-08T10:51:05;11.07;;;8.73;;
11338;SDS011;5724;42.684;23.252;2023-02-08T10:53:37;6.80;;;5.43;;
11338;SDS011;5724;42.684;23.252;2023-02-08T10:56:02;5.07;;;4.60;;
11338;SDS011;5724;42.684;23.252;2023-02-08T10:58:28;9.33;;;5.97;;
11338;SDS011;5724;42.684;23.252;2023-02-08T11:00:54;3.63;;;3.10;;
11338;SDS011;5724;42.684;23.252;2023-02-08T11:03:26;8.60;;;4.83;;
11338;SDS011;5724;42.684;23.252;2023-02-08T11:05:53;6.53;;;4.17;;
11338;SDS011;5724;42.684;23.252;2023-02-08T11:08:19;15.07;;;10.70;;
11338;SDS011;5724;42.684;23.252;2023-02-08T11:13:40;11.30;;;9.37;;
11338;SDS011;5724;42.684;23.252;2023-02-08T11:16:20;15.57;;;11.20;;
11338;SDS011;5724;42.684;23.252;2023-02-08T11:21:28;8.20;;;5.37;;
11338;SDS011;5724;42.684;23.252;2023-02-08T11:23:58;8.37;;;6.17;;
11338;SDS011;5724;42.684;23.252;2023-02-08T11:29:02;5.43;;;3.57;;
11338;SDS011;5724;42.684;23.252;2023-02-08T11:31:27;9.80;;;7.70;;
11338;SDS011;5724;42.684;23.252;2023-02-08T11:33:58;15.87;;;10.97;;
11338;SDS011;5724;42.684;23.252;2023-02-08T11:36:23;13.90;;;11.13;;
11338;SDS011;5724;42.684;23.252;2023-02-08T11:38:49;14.97;;;11.37;;
11338;SDS011;5724;42.684;23.252;2023-02-08T11:41:15;12.63;;;10.63;;
11338;SDS011;5724;42.684;23.252;2023-02-08T11:43:57;4.17;;;3.77;;
11338;SDS011;5724;42.684;23.252;2023-02-08T11:46:27;9.90;;;6.50;;
11338;SDS011;5724;42.684;23.252;2023-02-08T11:48:56;8.40;;;5.43;;
11338;SDS011;5724;42.684;23.252;2023-02-08T11:51:26;5.33;;;4.70;;
11338;SDS011;5724;42.684;23.252;2023-02-08T11:53:58;9.00;;;6.17;;
11338;SDS011;5724;42.684;23.252;2023-02-08T11:56:26;9.10;;;6.70;;
11338;SDS011;5724;42.684;23.252;2023-02-08T11:58:56;8.43;;;6.63;;
11338;SDS011;5724;42.684;23.252;2023-02-08T12:01:35;21.50;;;13.17;;
11338;SDS011;5724;42.684;23.252;2023-02-08T12:04:03;18.37;;;12.20;;
11338;SDS011;5724;42.684;23.252;2023-02-08T12:12:11;5.47;;;4.87;;
11338;SDS011;5724;42.684;23.252;2023-02-08T12:26:14;15.63;;;10.00;;
11338;SDS011;5724;42.684;23.252;2023-02-08T12:28:56;13.67;;;10.90;;
11338;SDS011;5724;42.684;23.252;2023-02-08T12:39:46;8.20;;;5.83;;
11338;SDS011;5724;42.684;23.252;2023-02-08T12:42:39;6.60;;;4.83;;
11338;SDS011;5724;42.684;23.252;2023-02-08T12:48:07;7.40;;;6.37;;
11338;SDS011;5724;42.684;23.252;2023-02-08T12:51:00;5.07;;;3.80;;
11338;SDS011;5724;42.684;23.252;2023-02-08T12:56:54;8.13;;;7.33;;
11338;SDS011;5724;42.684;23.252;2023-02-08T12:59:23;3.13;;;2.87;;
11338;SDS011;5724;42.684;23.252;2023-02-08T13:01:54;2.73;;;2.40;;
11338;SDS011;5724;42.684;23.252;2023-02-08T13:04:34;4.83;;;4.30;;
11338;SDS011;5724;42.684;23.252;2023-02-08T13:07:10;5.00;;;3.67;;
11338;SDS011;5724;42.684;23.252;2023-02-08T13:09:54;3.53;;;1.60;;
11338;SDS011;5724;42.684;23.252;2023-02-08T13:12:23;6.77;;;5.27;;
11338;SDS011;5724;42.684;23.252;2023-02-08T13:14:54;2.20;;;2.10;;
11338;SDS011;5724;42.684;23.252;2023-02-08T13:17:42;5.60;;;5.10;;
11338;SDS011;5724;42.684;23.252;2023-02-08T13:23:02;5.70;;;5.23;;
11338;SDS011;5724;42.684;23.252;2023-02-08T13:25:39;7.30;;;4.90;;
11338;SDS011;5724;42.684;23.252;2023-02-08T13:28:06;3.83;;;3.07;;
11338;SDS011;5724;42.684;23.252;2023-02-08T13:30:36;3.17;;;2.80;;
11338;SDS011;5724;42.684;23.252;2023-02-08T13:33:16;3.23;;;3.03;;
11338;SDS011;5724;42.684;23.252;2023-02-08T13:35:49;3.33;;;2.50;;
11338;SDS011;5724;42.684;23.252;2023-02-08T13:38:24;2.60;;;2.40;;
11338;SDS011;5724;42.684;23.252;2023-02-08T13:41:06;3.60;;;2.60;;
11338;SDS011;5724;42.684;23.252;2023-02-08T13:44:16;4.67;;;3.70;;
11338;SDS011;5724;42.684;23.252;2023-02-08T13:46:27;10.00;;;8.20;;
11338;SDS011;5724;42.684;23.252;2023-02-08T13:48:59;8.60;;;7.70;;
11338;SDS011;5724;42.684;23.252;2023-02-08T14:08:07;7.47;;;5.87;;
11338;SDS011;5724;42.684;23.252;2023-02-08T14:10:47;3.40;;;2.77;;
11338;SDS011;5724;42.684;23.252;2023-02-08T14:13:28;12.10;;;8.23;;
11338;SDS011;5724;42.684;23.252;2023-02-08T14:18:55;11.53;;;9.40;;
11338;SDS011;5724;42.684;23.252;2023-02-08T14:21:33;12.50;;;9.87;;
11338;SDS011;5724;42.684;23.252;2023-02-08T14:24:06;7.60;;;4.83;;
11338;SDS011;5724;42.684;23.252;2023-02-08T14:26:44;24.40;;;11.30;;
11338;SDS011;5724;42.684;23.252;2023-02-08T14:29:15;7.57;;;5.13;;
11338;SDS011;5724;42.684;23.252;2023-02-08T14:31:51;9.13;;;7.30;;
11338;SDS011;5724;42.684;23.252;2023-02-08T14:34:38;4.07;;;3.53;;
11338;SDS011;5724;42.684;23.252;2023-02-08T14:39:42;7.17;;;4.30;;
11338;SDS011;5724;42.684;23.252;2023-02-08T14:42:10;16.67;;;11.03;;
11338;SDS011;5724;42.684;23.252;2023-02-08T14:49:39;14.80;;;10.60;;
11338;SDS011;5724;42.684;23.252;2023-02-08T14:52:11;14.07;;;10.97;;
11338;SDS011;5724;42.684;23.252;2023-02-08T14:54:44;10.27;;;5.93;;
11338;SDS011;5724;42.684;23.252;2023-02-08T14:57:23;3.40;;;3.10;;
11338;SDS011;5724;42.684;23.252;2023-02-08T14:59:50;3.07;;;2.77;;
11338;SDS011;5724;42.684;23.252;2023-02-08T15:02:21;4.13;;;3.70;;
11338;SDS011;5724;42.684;23.252;2023-02-08T15:04:55;5.67;;;3.77;;
11338;SDS011;5724;42.684;23.252;2023-02-08T15:10:03;4.57;;;4.27;;
11338;SDS011;5724;42.684;23.252;2023-02-08T15:12:34;15.13;;;10.57;;
11338;SDS011;5724;42.684;23.252;2023-02-08T15:15:03;11.10;;;8.67;;
11338;SDS011;5724;42.684;23.252;2023-02-08T15:17:38;9.67;;;8.30;;
11338;SDS011;5724;42.684;23.252;2023-02-08T15:20:13;14.33;;;9.37;;
11338;SDS011;5724;42.684;23.252;2023-02-08T15:22:43;3.57;;;2.53;;
11338;SDS011;5724;42.684;23.252;2023-02-08T15:25:30;5.77;;;5.27;;
11338;SDS011;5724;42.684;23.252;2023-02-08T15:28:01;11.50;;;6.77;;
11338;SDS011;5724;42.684;23.252;2023-02-08T15:30:44;7.40;;;5.63;;
11338;SDS011;5724;42.684;23.252;2023-02-08T15:33:16;8.00;;;6.07;;
11338;SDS011;5724;42.684;23.252;2023-02-08T15:35:43;13.90;;;8.73;;
11338;SDS011;5724;42.684;23.252;2023-02-08T15:38:14;4.87;;;4.47;;
11338;SDS011;5724;42.684;23.252;2023-02-08T15:40:43;11.03;;;4.93;;
11338;SDS011;5724;42.684;23.252;2023-02-08T15:43:24;13.23;;;8.37;;
11338;SDS011;5724;42.684;23.252;2023-02-08T15:45:56;13.60;;;9.10;;
11338;SDS011;5724;42.684;23.252;2023-02-08T15:48:24;17.87;;;8.87;;
11338;SDS011;5724;42.684;23.252;2023-02-08T15:50:51;3.80;;;3.53;;
11338;SDS011;5724;42.684;23.252;2023-02-08T15:53:17;3.90;;;3.53;;
11338;SDS011;5724;42.684;23.252;2023-02-08T15:56:02;6.03;;;4.53;;
11338;SDS011;5724;42.684;23.252;2023-02-08T15:58:30;3.73;;;3.37;;
11338;SDS011;5724;42.684;23.252;2023-02-08T16:01:00;5.53;;;4.57;;
11338;SDS011;5724;42.684;23.252;2023-02-08T16:03:27;4.90;;;3.40;;
11338;SDS011;5724;42.684;23.252;2023-02-08T16:05:56;6.00;;;4.83;;
11338;SDS011;5724;42.684;23.252;2023-02-08T16:08:29;6.27;;;5.67;;
11338;SDS011;5724;42.684;23.252;2023-02-08T16:11:10;14.93;;;9.03;;
11338;SDS011;5724;42.684;23.252;2023-02-08T16:13:39;11.43;;;8.33;;
11338;SDS011;5724;42.684;23.252;2023-02-08T16:18:47;4.10;;;3.70;;
11338;SDS011;5724;42.684;23.252;2023-02-08T16:23:50;10.03;;;3.27;;
11338;SDS011;5724;42.684;23.252;2023-02-08T16:26:22;6.33;;;5.37;;
11338;SDS011;5724;42.684;23.252;2023-02-08T16:28:50;15.90;;;10.00;;
11338;SDS011;5724;42.684;23.252;2023-02-08T16:31:21;8.30;;;5.43;;
11338;SDS011;5724;42.684;23.252;2023-02-08T16:34:23;4.20;;;3.80;;
11338;SDS011;5724;42.684;23.252;2023-02-08T16:36:44;4.83;;;4.07;;
11338;SDS011;5724;42.684;23.252;2023-02-08T16:44:31;13.67;;;10.63;;
11338;SDS011;5724;42.684;23.252;2023-02-08T16:46:59;16.43;;;11.27;;
11338;SDS011;5724;42.684;23.252;2023-02-08T16:49:25;17.13;;;11.43;;
11338;SDS011;5724;42.684;23.252;2023-02-08T16:51:57;15.70;;;10.87;;
11338;SDS011;5724;42.684;23.252;2023-02-08T16:54:23;16.33;;;10.80;;
11338;SDS011;5724;42.684;23.252;2023-02-08T16:56:50;16.17;;;12.07;;
11338;SDS011;5724;42.684;23.252;2023-02-08T16:59:24;17.07;;;11.17;;
11338;SDS011;5724;42.684;23.252;2023-02-08T17:01:51;16.07;;;11.70;;
11338;SDS011;5724;42.684;23.252;2023-02-08T17:04:16;18.40;;;11.47;;
11338;SDS011;5724;42.684;23.252;2023-02-08T17:06:42;3.73;;;3.43;;
11338;SDS011;5724;42.684;23.252;2023-02-08T17:09:10;5.70;;;4.70;;
11338;SDS011;5724;42.684;23.252;2023-02-08T17:11:37;3.63;;;2.90;;
11338;SDS011;5724;42.684;23.252;2023-02-08T17:14:03;3.90;;;3.60;;
11338;SDS011;5724;42.684;23.252;2023-02-08T17:16:30;5.83;;;4.10;;
11338;SDS011;5724;42.684;23.252;2023-02-08T17:18:57;9.80;;;5.80;;
11338;SDS011;5724;42.684;23.252;2023-02-08T17:21:23;6.00;;;4.37;;
11338;SDS011;5724;42.684;23.252;2023-02-08T17:23:49;14.10;;;9.57;;